Weather at Harry Reid International Airport

Public forecast

Using degrees Fahrenheit for public forecast. Weather courtesy of forecast.io.

Current aviation weather report (METAR) for Harry Reid International Airport

2022/11/30 10:56 (retrieved 59 minutes ago)

KLAS 301056Z 22003KT 10SM CLR 03/M09 A3006 RMK AO2 SLP182 T00281094

Aviation forecast (TAF) for Harry Reid International Airport

2022/11/30 09:54 Ammendment (retrieved 2 hours ago)

TAF AMD KLAS 300851Z 3009/0112 VRB04KT P6SM SKC FM301900 08006KT P6SM SCT250 FM010300 21006KT P6SM FEW250